AirNav   Pilot Hours Calculator
 
 1284 users online  

24KS Weiss Acres Airport
Viola, Kansas, USA

GOING TO VIOLA?


FAA INFORMATION EFFECTIVE 22 APRIL 2021

Location

FAA Identifier: 24KS
Lat/Long: 37-31-27.5800N 097-36-11.4700W
37-31.459667N 097-36.191167W
37.5243278,-97.6031861
(estimated)
Elevation: 1302 ft. / 397 m (estimated)
From city: 3 miles NE of VIOLA, KS
Time zone: UTC -5 (UTC -6 during Standard Time)
Zip code: 67149

Airport Operations

Airport use: Private use. Permission required prior to landing
Activation date: 05/2017
Control tower: no
ARTCC: KANSAS CITY CENTER
FSS: WICHITA FLIGHT SERVICE STATION
Attendance: UNATNDD
Segmented circle: no

Airport Communications

WX ASOS at ICT (11 nm NE): PHONE 316-945-8022
WX AWOS-3 at EGT (16 nm SE): 118.875 (620-326-2470)

Nearby radio navigation aids

VOR radial/distance  VOR name  Freq  Var
ICTr177/13.3WICHITA VORTAC113.8007E
HUTr147/32.4HUTCHINSON VOR/DME116.8004E

 
NDB name  Hdg/Dist  Freq  Var  ID
PICHE241/7.733204EIC .. -.-.
NEWTON200/36.028106EEWK . .-- -.-

Airport Services

Runway Information

Runway 17/35

Dimensions: 1270 x 40 ft. / 387 x 12 m
Surface: turf
RUNWAY 17  RUNWAY 35
Traffic pattern: leftleft

Airport Ownership and Management from official FAA records

Ownership: Privately-owned
Owner: ALAN WEISS
22930 W. K42 HWY
VIOLA, KS 67149
Phone 620-584-6338
Manager: ALAN WEISS
22930 W. K42 HWY
VIOLA, KS 67149
Phone 620-584-6338

Additional Remarks

FOR CD CTC WICHITA APCH AT 316-350-1520.

Instrument Procedures

There are no published instrument procedures at 24KS.

Some nearby airports with instrument procedures:

KICT - Wichita Dwight D Eisenhower NTL Airport (11 nm NE)
KEGT - Wellington Municipal Airport (16 nm SE)
KIAB - Mc Connell Air Force Base (17 nm E)
KCEA - Cessna Aircraft Field Airport (18 nm NE)
KBEC - Beech Factory Airport (21 nm NE)
 
Loc | Ops | Rwys | IFR | FBO | Links
Com | Nav | Svcs | Stats | Notes
Aerial photo
No photo
 
Airport distance calculator
Flying to Weiss Acres Airport? Find the distance to fly.

From to 24KS

Sunrise and sunset
Times for 05-May-2021
 Local
(UTC-5)
 Zulu
(UTC)
Morning civil twilight06:0311:03
Sunrise06:3211:32
Sunset20:2301:23
Evening civil twilight20:5101:51

Current date and time
Zulu (UTC)  05-May-2021 22:51:00
Local (UTC-5)  05-May-2021 17:51:00
 
METAR
KICT 
11nm NE 
052153Z 08005KT 10SM FEW070 BKN100 BKN150 BKN220 18/07 A3012 RMK AO2 SLP198 ACC DSNT NW-NE T01780067
KIAB 
17nm E 
052156Z AUTO 09004KT 10SM BKN110 19/06 A3012 RMK AO2 SLP200 T01890060
KBEC 
21nm NE 
052235Z AUTO 11003KT 10SM SCT100 18/07 A3012 RMK AO2 LTG DSNT N T01780071
TAF
KICT 
11nm NE 
051748Z 0518/0618 15010KT P6SM BKN070 FM051900 21010KT P6SM -SHRA BKN070 FM052300 25008KT P6SM SCT070 FM060500 VRB06KT P6SM SCT070 FM061100 33010KT P6SM SCT060
KIAB 
17nm E 
052130Z 0521/0624 07009KT 9999 VCSH FEW090 BKN110 QNH3013INS TEMPO 0520/0523 31015G25KT 8000 -SHRA SCT030 BKN060 BECMG 0522/0523 22009KT 9999 NSW FEW060 SCT150 QNH3012INS BECMG 0603/0604 30009KT 9999 SCT025 BKN045 QNH3010INS BECMG 0609/0610 36015G20KT 9999 SCT045 QNH3025INS TX19/0521Z TN07/0611Z
NOTAMs
Click for the latest NOTAMs
NOTAMs are issued by the DoD/FAA and will open in a separate window not controlled by AirNav.

 

 
 

Would you like to see your business listed on this page?

 If your business provides an interesting product or service to pilots, flight crews, aircraft, or users of the Weiss Acres Airport, you should consider listing it here.  To start the listing process, click on the button below
 
Add a business
 

Other Pages about Weiss Acres Airport

Update a link
 
Copyright © AirNav, LLC. All rights reserved. Privacy Policy  Contact